createdAt,value
2017-12-16T12:36:05.572Z,4.20
2017-12-16T12:38:34.370Z,4.10
2017-12-16T12:41:03.170Z,5.60
2017-12-16T13:47:36.661Z,6.30
2017-12-16T13:50:23.267Z,4.93
2017-12-16T14:57:48.719Z,3.10
2017-12-16T15:00:17.518Z,3.90
2017-12-16T16:58:38.817Z,4.30
2017-12-16T17:01:06.329Z,3.83
2017-12-16T17:03:33.818Z,4.30
2017-12-16T17:06:01.349Z,3.80
2017-12-16T17:08:28.840Z,4.00
2017-12-16T17:10:56.283Z,4.00
2017-12-16T17:13:23.739Z,3.50
2017-12-16T17:15:51.230Z,3.93
2017-12-16T17:18:18.679Z,4.30
2017-12-16T17:20:46.166Z,4.63
2017-12-16T17:23:13.623Z,4.12
2017-12-16T17:25:41.121Z,4.43
2017-12-16T17:28:08.609Z,4.30
2017-12-16T17:30:36.835Z,4.00
2017-12-16T17:33:04.350Z,4.30
2017-12-16T17:35:31.794Z,4.57
2017-12-16T17:37:59.244Z,4.50
2017-12-16T17:40:27.520Z,4.90
2017-12-16T17:42:55.776Z,5.50
2017-12-16T17:45:23.275Z,4.00
2017-12-16T17:47:50.753Z,3.90
2017-12-16T17:50:18.210Z,3.97
2017-12-16T17:52:45.659Z,3.73
2017-12-16T17:55:14.470Z,3.50
2017-12-16T17:57:41.964Z,3.70
2017-12-16T18:00:10.819Z,3.42
2017-12-16T18:02:38.328Z,3.50
2017-12-16T18:05:07.764Z,3.50
2017-12-16T18:07:35.251Z,4.73
2017-12-16T18:10:02.764Z,4.30
2017-12-16T18:12:30.241Z,4.33
2017-12-16T18:14:57.687Z,3.63
2017-12-16T18:17:25.139Z,3.90
2017-12-16T18:19:52.597Z,3.77
2017-12-16T18:22:20.103Z,4.17
2017-12-16T18:24:48.392Z,4.07
2017-12-16T18:27:16.608Z,4.50
2017-12-16T18:29:44.108Z,4.50
2017-12-16T18:32:12.378Z,3.93
2017-12-16T18:34:39.883Z,3.40
2017-12-16T18:37:07.713Z,3.53
2017-12-16T18:39:35.983Z,3.10
2017-12-16T18:42:04.264Z,4.10
2017-12-16T18:44:32.568Z,4.43
2017-12-16T18:47:00.059Z,4.43
2017-12-16T18:49:27.547Z,3.73
2017-12-16T18:51:55.802Z,4.03
2017-12-16T18:54:23.275Z,5.07
2017-12-16T18:56:51.503Z,3.73
2017-12-16T18:59:18.947Z,4.83
2017-12-16T19:01:46.454Z,4.90
2017-12-16T19:04:13.945Z,5.40
2017-12-16T19:06:41.439Z,4.80
2017-12-16T19:09:08.934Z,5.03
2017-12-16T19:11:36.439Z,5.83
2017-12-16T19:14:03.942Z,5.20
2017-12-16T19:24:47.840Z,1.87
2017-12-16T19:57:16.531Z,14.53
2017-12-16T19:59:43.987Z,14.90
2017-12-16T20:02:11.674Z,15.00
2017-12-16T20:04:39.177Z,14.17
2017-12-16T20:07:07.218Z,15.40
2017-12-16T20:09:36.366Z,14.03
2017-12-16T20:12:03.823Z,12.40
2017-12-16T20:14:31.465Z,12.57
2017-12-16T20:16:58.982Z,12.10
2017-12-16T20:19:27.190Z,13.03
2017-12-16T20:21:54.989Z,12.77
2017-12-16T20:24:22.551Z,13.10
2017-12-16T20:26:50.706Z,13.20
2017-12-16T20:29:18.211Z,13.50
2017-12-16T20:31:47.368Z,13.27
2017-12-16T20:34:14.934Z,14.17
2017-12-16T20:36:42.474Z,14.80
2017-12-16T20:39:09.995Z,12.97
2017-12-16T20:41:37.494Z,13.17
2017-12-16T20:44:05.002Z,13.97
2017-12-16T20:46:34.294Z,13.50
2017-12-16T20:49:02.633Z,13.23
2017-12-16T20:51:30.863Z,14.57
2017-12-16T20:53:58.487Z,14.20
2017-12-16T20:56:25.994Z,15.17
2017-12-16T20:58:53.506Z,15.97
2017-12-16T21:01:20.998Z,14.93
2017-12-16T21:03:48.515Z,16.30
2017-12-16T21:06:16.096Z,15.57
2017-12-16T21:08:43.608Z,21.20
2017-12-16T21:11:11.092Z,25.23
2017-12-16T21:13:44.586Z,33.67
2017-12-16T21:16:12.078Z,26.27
2017-12-16T21:18:39.788Z,17.20
2017-12-16T21:21:07.298Z,18.70
2017-12-16T21:23:34.802Z,19.67
2017-12-16T21:26:02.314Z,25.83
2017-12-16T21:28:29.824Z,18.33
2017-12-16T21:30:57.315Z,16.97
2017-12-16T21:33:25.585Z,15.60
2017-12-16T21:35:53.852Z,15.30
2017-12-16T21:38:22.135Z,14.53
2017-12-16T21:40:50.394Z,14.73
2017-12-16T21:43:17.891Z,15.60
2017-12-16T21:45:45.390Z,14.37
2017-12-16T21:48:12.907Z,14.20
2017-12-16T21:50:40.406Z,14.20
2017-12-16T21:53:08.042Z,14.37
2017-12-16T21:55:36.297Z,14.87
2017-12-16T21:58:03.813Z,14.20
2017-12-16T22:00:31.314Z,13.80
2017-12-16T22:02:58.810Z,13.90
2017-12-16T22:05:26.319Z,13.47
2017-12-16T22:07:53.806Z,14.37
2017-12-16T22:10:21.302Z,16.40
2017-12-16T22:12:50.186Z,17.90
2017-12-16T22:15:18.948Z,16.03
2017-12-16T22:17:46.510Z,15.20
2017-12-16T22:20:14.075Z,15.53
2017-12-16T22:22:41.598Z,14.70
2017-12-16T22:25:09.991Z,14.30
2017-12-16T22:27:38.324Z,13.40
2017-12-16T22:30:06.690Z,13.27
2017-12-16T22:32:34.173Z,12.37
2017-12-16T22:35:01.747Z,13.50
2017-12-16T22:37:29.181Z,12.73
2017-12-16T22:39:57.454Z,13.43
2017-12-16T22:42:24.956Z,12.83
2017-12-16T22:44:52.456Z,12.47
2017-12-16T22:47:20.714Z,12.07
2017-12-16T22:49:48.194Z,11.13
2017-12-16T22:52:15.684Z,11.23
2017-12-16T22:54:43.179Z,10.37
2017-12-16T22:57:10.737Z,11.37
2017-12-16T22:59:38.182Z,12.20
2017-12-16T23:02:05.656Z,12.70
2017-12-16T23:04:33.158Z,12.90
2017-12-16T23:07:00.636Z,11.50
2017-12-16T23:09:28.134Z,12.63
2017-12-16T23:11:55.620Z,12.20
2017-12-16T23:14:23.124Z,12.27
2017-12-16T23:16:50.611Z,12.77
2017-12-16T23:19:18.889Z,12.77
2017-12-16T23:21:47.151Z,12.20
2017-12-16T23:24:14.644Z,12.27
2017-12-16T23:26:42.138Z,11.40
2017-12-16T23:29:09.621Z,11.50
2017-12-16T23:31:37.119Z,11.53
2017-12-16T23:34:04.555Z,11.90
2017-12-16T23:36:32.766Z,11.17
2017-12-16T23:39:00.268Z,10.63
2017-12-16T23:41:27.750Z,10.93
2017-12-16T23:43:55.187Z,10.50
2017-12-16T23:46:22.698Z,10.60
2017-12-16T23:48:50.176Z,10.33
2017-12-16T23:51:17.668Z,12.60
2017-12-16T23:53:45.871Z,11.87
2017-12-16T23:56:13.367Z,11.70
2017-12-16T23:58:40.807Z,12.00
